sensor_id;sensor_type;location;lat;lon;timestamp;pressure;altitude;pressure_sealevel;temperature;humidity
56052;BME280;41919;42.648;23.384;2022-07-23T00:01:31;94851.75;;;20.65;49.54
56052;BME280;41919;42.648;23.384;2022-07-23T00:03:57;94854.13;;;20.62;50.21
56052;BME280;41919;42.648;23.384;2022-07-23T00:06:24;94816.44;;;20.17;51.14
56052;BME280;41919;42.648;23.384;2022-07-23T00:08:49;94872.28;;;20.37;51.70
56052;BME280;41919;42.648;23.384;2022-07-23T00:11:16;94810.44;;;19.89;52.24
56052;BME280;41919;42.648;23.384;2022-07-23T00:13:41;94817.00;;;19.76;52.39
56052;BME280;41919;42.648;23.384;2022-07-23T00:16:07;94822.28;;;19.76;53.00
56052;BME280;41919;42.648;23.384;2022-07-23T00:18:33;94815.28;;;19.65;53.41
56052;BME280;41919;42.648;23.384;2022-07-23T00:20:58;94879.75;;;20.03;53.27
56052;BME280;41919;42.648;23.384;2022-07-23T00:23:24;94882.66;;;20.02;53.51
56052;BME280;41919;42.648;23.384;2022-07-23T00:25:51;94839.28;;;19.75;53.47
56052;BME280;41919;42.648;23.384;2022-07-23T00:28:17;94808.09;;;19.61;53.67
56052;BME280;41919;42.648;23.384;2022-07-23T00:30:44;94825.09;;;19.65;53.81
56052;BME280;41919;42.648;23.384;2022-07-23T00:33:09;94884.22;;;19.92;54.54
56052;BME280;41919;42.648;23.384;2022-07-23T00:35:37;94854.09;;;19.76;54.57
56052;BME280;41919;42.648;23.384;2022-07-23T00:38:04;94889.06;;;20.06;55.28
56052;BME280;41919;42.648;23.384;2022-07-23T00:40:30;94879.81;;;20.08;56.06
56052;BME280;41919;42.648;23.384;2022-07-23T00:42:56;94897.72;;;20.28;55.85
56052;BME280;41919;42.648;23.384;2022-07-23T00:45:22;94887.72;;;20.41;55.90
56052;BME280;41919;42.648;23.384;2022-07-23T00:47:47;94846.25;;;20.29;55.42
56052;BME280;41919;42.648;23.384;2022-07-23T00:50:13;94841.50;;;20.36;55.33
56052;BME280;41919;42.648;23.384;2022-07-23T00:52:39;94810.34;;;20.16;54.96
56052;BME280;41919;42.648;23.384;2022-07-23T00:55:07;94836.66;;;20.23;55.15
56052;BME280;41919;42.648;23.384;2022-07-23T00:57:34;94884.22;;;20.40;55.37
56052;BME280;41919;42.648;23.384;2022-07-23T01:00:00;94867.63;;;20.12;55.68
56052;BME280;41919;42.648;23.384;2022-07-23T01:02:26;94881.09;;;20.06;55.89
56052;BME280;41919;42.648;23.384;2022-07-23T01:04:52;94877.00;;;19.88;55.91
56052;BME280;41919;42.648;23.384;2022-07-23T01:07:18;94776.25;;;19.23;55.53
56052;BME280;41919;42.648;23.384;2022-07-23T01:09:45;94872.72;;;19.82;55.51
56052;BME280;41919;42.648;23.384;2022-07-23T01:12:11;94818.34;;;19.52;55.68
56052;BME280;41919;42.648;23.384;2022-07-23T01:14:37;94817.03;;;19.49;55.22
56052;BME280;41919;42.648;23.384;2022-07-23T01:17:03;94874.59;;;19.86;55.25
56052;BME280;41919;42.648;23.384;2022-07-23T01:19:29;94868.47;;;19.81;55.24
56052;BME280;41919;42.648;23.384;2022-07-23T01:21:55;94812.75;;;19.43;55.40
56052;BME280;41919;42.648;23.384;2022-07-23T01:24:21;94865.34;;;19.62;56.10
56052;BME280;41919;42.648;23.384;2022-07-23T01:26:48;94855.69;;;19.45;56.68
56052;BME280;41919;42.648;23.384;2022-07-23T01:29:14;94865.75;;;19.43;57.07
56052;BME280;41919;42.648;23.384;2022-07-23T01:31:40;94825.66;;;19.07;57.69
56052;BME280;41919;42.648;23.384;2022-07-23T01:34:06;94873.59;;;19.33;57.38
56052;BME280;41919;42.648;23.384;2022-07-23T01:36:33;94867.16;;;19.24;57.86
56052;BME280;41919;42.648;23.384;2022-07-23T01:38:58;94798.97;;;18.87;57.80
56052;BME280;41919;42.648;23.384;2022-07-23T01:41:23;94855.41;;;19.14;57.45
56052;BME280;41919;42.648;23.384;2022-07-23T01:43:49;94814.91;;;18.92;57.25
56052;BME280;41919;42.648;23.384;2022-07-23T01:46:15;94863.69;;;19.23;57.17
56052;BME280;41919;42.648;23.384;2022-07-23T01:48:40;94796.28;;;18.82;57.12
56052;BME280;41919;42.648;23.384;2022-07-23T01:51:06;94867.19;;;19.29;56.90
56052;BME280;41919;42.648;23.384;2022-07-23T01:53:31;94865.34;;;19.29;56.54
56052;BME280;41919;42.648;23.384;2022-07-23T01:55:58;94864.34;;;19.35;56.52
56052;BME280;41919;42.648;23.384;2022-07-23T01:58:24;94790.59;;;18.95;56.03
56052;BME280;41919;42.648;23.384;2022-07-23T02:00:50;94822.31;;;19.17;55.97
56052;BME280;41919;42.648;23.384;2022-07-23T02:03:15;94870.03;;;19.49;55.82
56052;BME280;41919;42.648;23.384;2022-07-23T02:05:40;94856.84;;;19.54;55.44
56052;BME280;41919;42.648;23.384;2022-07-23T02:08:06;94835.94;;;19.31;55.60
56052;BME280;41919;42.648;23.384;2022-07-23T02:10:31;94814.59;;;19.15;55.70
56052;BME280;41919;42.648;23.384;2022-07-23T02:12:57;94810.56;;;19.08;56.19
56052;BME280;41919;42.648;23.384;2022-07-23T02:15:22;94806.09;;;19.08;55.89
56052;BME280;41919;42.648;23.384;2022-07-23T02:17:48;94866.84;;;19.47;56.02
56052;BME280;41919;42.648;23.384;2022-07-23T02:20:14;94816.06;;;19.01;56.71
56052;BME280;41919;42.648;23.384;2022-07-23T02:22:39;94832.25;;;19.05;56.33
56052;BME280;41919;42.648;23.384;2022-07-23T02:25:06;94825.31;;;18.98;56.55
56052;BME280;41919;42.648;23.384;2022-07-23T02:27:32;94867.94;;;19.24;56.63
56052;BME280;41919;42.648;23.384;2022-07-23T02:29:57;94822.50;;;18.83;56.70
56052;BME280;41919;42.648;23.384;2022-07-23T02:32:23;94799.63;;;18.77;56.60
56052;BME280;41919;42.648;23.384;2022-07-23T02:34:49;94814.41;;;18.73;56.91
56052;BME280;41919;42.648;23.384;2022-07-23T02:37:14;94858.13;;;18.97;57.49
56052;BME280;41919;42.648;23.384;2022-07-23T02:39:40;94869.53;;;18.98;58.37
56052;BME280;41919;42.648;23.384;2022-07-23T02:42:05;94817.09;;;18.51;58.33
56052;BME280;41919;42.648;23.384;2022-07-23T02:44:31;94819.19;;;18.49;58.78
56052;BME280;41919;42.648;23.384;2022-07-23T02:46:56;94876.25;;;18.84;59.17
56052;BME280;41919;42.648;23.384;2022-07-23T02:49:22;94882.25;;;18.79;59.35
56052;BME280;41919;42.648;23.384;2022-07-23T02:51:47;94884.00;;;18.68;59.65
56052;BME280;41919;42.648;23.384;2022-07-23T02:54:12;94822.34;;;18.29;59.89
56052;BME280;41919;42.648;23.384;2022-07-23T02:56:38;94833.50;;;18.31;60.15
56052;BME280;41919;42.648;23.384;2022-07-23T02:59:04;94829.00;;;18.31;60.05
56052;BME280;41919;42.648;23.384;2022-07-23T03:01:29;94887.66;;;18.67;60.44
56052;BME280;41919;42.648;23.384;2022-07-23T03:03:55;94891.63;;;18.65;60.32
56052;BME280;41919;42.648;23.384;2022-07-23T03:06:20;94840.16;;;18.33;60.62
56052;BME280;41919;42.648;23.384;2022-07-23T03:08:46;94897.41;;;18.61;60.61
56052;BME280;41919;42.648;23.384;2022-07-23T03:11:12;94896.53;;;18.56;61.12
56052;BME280;41919;42.648;23.384;2022-07-23T03:13:38;94903.69;;;18.55;61.16
56052;BME280;41919;42.648;23.384;2022-07-23T03:16:04;94832.38;;;18.05;61.26
56052;BME280;41919;42.648;23.384;2022-07-23T03:18:29;94846.19;;;18.12;61.41
56052;BME280;41919;42.648;23.384;2022-07-23T03:20:55;94900.41;;;18.48;61.26
56052;BME280;41919;42.648;23.384;2022-07-23T03:23:20;94854.53;;;18.20;60.89
56052;BME280;41919;42.648;23.384;2022-07-23T03:25:46;94893.75;;;18.46;61.05
56052;BME280;41919;42.648;23.384;2022-07-23T03:28:15;94914.88;;;18.63;61.08
56052;BME280;41919;42.648;23.384;2022-07-23T03:30:44;94900.47;;;18.53;61.12
56052;BME280;41919;42.648;23.384;2022-07-23T03:33:12;94883.50;;;18.49;60.71
56052;BME280;41919;42.648;23.384;2022-07-23T03:35:38;94905.88;;;18.80;60.24
56052;BME280;41919;42.648;23.384;2022-07-23T03:38:03;94894.16;;;18.76;60.19
56052;BME280;41919;42.648;23.384;2022-07-23T03:40:28;94871.75;;;18.62;60.21
56052;BME280;41919;42.648;23.384;2022-07-23T03:42:54;94896.69;;;18.88;59.93
56052;BME280;41919;42.648;23.384;2022-07-23T03:45:19;94906.84;;;18.96;60.08
56052;BME280;41919;42.648;23.384;2022-07-23T03:47:45;94921.56;;;19.09;59.65
56052;BME280;41919;42.648;23.384;2022-07-23T03:50:10;94902.78;;;19.11;59.56
56052;BME280;41919;42.648;23.384;2022-07-23T03:52:36;94919.94;;;19.30;59.07
56052;BME280;41919;42.648;23.384;2022-07-23T03:55:02;94915.59;;;19.46;58.50
56052;BME280;41919;42.648;23.384;2022-07-23T03:57:28;94857.34;;;19.24;58.07
56052;BME280;41919;42.648;23.384;2022-07-23T03:59:53;94923.31;;;19.75;57.50
56052;BME280;41919;42.648;23.384;2022-07-23T04:02:19;94916.25;;;19.86;57.26
56052;BME280;41919;42.648;23.384;2022-07-23T04:04:44;94879.97;;;19.64;56.86
56052;BME280;41919;42.648;23.384;2022-07-23T04:07:10;94874.22;;;19.72;56.75
56052;BME280;41919;42.648;23.384;2022-07-23T04:09:35;94866.09;;;19.84;56.26
56052;BME280;41919;42.648;23.384;2022-07-23T04:12:01;94874.25;;;20.10;55.89
56052;BME280;41919;42.648;23.384;2022-07-23T04:14:26;94870.09;;;20.24;55.40
56052;BME280;41919;42.648;23.384;2022-07-23T04:16:51;94905.31;;;20.57;54.92
56052;BME280;41919;42.648;23.384;2022-07-23T04:19:17;94908.09;;;20.78;54.26
56052;BME280;41919;42.648;23.384;2022-07-23T04:21:42;94920.44;;;21.04;53.95
56052;BME280;41919;42.648;23.384;2022-07-23T04:24:08;94924.47;;;21.17;53.25
56052;BME280;41919;42.648;23.384;2022-07-23T04:26:33;94917.25;;;21.12;53.39
56052;BME280;41919;42.648;23.384;2022-07-23T04:28:59;94903.81;;;21.45;52.50
56052;BME280;41919;42.648;23.384;2022-07-23T04:31:24;94923.78;;;21.78;52.01
56052;BME280;41919;42.648;23.384;2022-07-23T04:33:50;94890.84;;;21.84;50.52
56052;BME280;41919;42.648;23.384;2022-07-23T04:36:15;94917.44;;;22.30;49.92
56052;BME280;41919;42.648;23.384;2022-07-23T04:38:40;94887.03;;;22.47;49.01
56052;BME280;41919;42.648;23.384;2022-07-23T04:41:06;94926.75;;;23.24;48.03
56052;BME280;41919;42.648;23.384;2022-07-23T04:43:32;94931.81;;;23.75;46.25
56052;BME280;41919;42.648;23.384;2022-07-23T04:45:57;94917.50;;;24.00;45.67
56052;BME280;41919;42.648;23.384;2022-07-23T04:48:22;94920.38;;;24.09;44.94
56052;BME280;41919;42.648;23.384;2022-07-23T04:50:48;94906.91;;;24.24;43.97
56052;BME280;41919;42.648;23.384;2022-07-23T04:53:13;94931.19;;;24.57;44.04
56052;BME280;41919;42.648;23.384;2022-07-23T04:55:39;94924.69;;;24.63;43.91
56052;BME280;41919;42.648;23.384;2022-07-23T04:58:04;94904.34;;;24.68;43.81
56052;BME280;41919;42.648;23.384;2022-07-23T05:00:29;94891.66;;;24.54;43.40
56052;BME280;41919;42.648;23.384;2022-07-23T05:02:55;94901.84;;;24.76;42.94
56052;BME280;41919;42.648;23.384;2022-07-23T05:05:20;94906.38;;;25.00;42.36
56052;BME280;41919;42.648;23.384;2022-07-23T05:07:46;94922.88;;;25.50;42.46
56052;BME280;41919;42.648;23.384;2022-07-23T05:10:11;94889.81;;;25.60;41.66
56052;BME280;41919;42.648;23.384;2022-07-23T05:12:36;94917.34;;;26.17;40.82
56052;BME280;41919;42.648;23.384;2022-07-23T05:15:02;94901.72;;;26.38;40.34
56052;BME280;41919;42.648;23.384;2022-07-23T05:17:27;94923.53;;;26.92;38.92
56052;BME280;41919;42.648;23.384;2022-07-23T05:19:53;94919.84;;;27.16;38.35
56052;BME280;41919;42.648;23.384;2022-07-23T05:22:18;94881.38;;;27.21;37.80
56052;BME280;41919;42.648;23.384;2022-07-23T05:24:44;94888.66;;;27.06;37.73
56052;BME280;41919;42.648;23.384;2022-07-23T05:27:09;94937.13;;;27.37;38.39
56052;BME280;41919;42.648;23.384;2022-07-23T05:29:35;94923.41;;;27.53;38.42
56052;BME280;41919;42.648;23.384;2022-07-23T05:32:00;94928.38;;;27.96;36.81
56052;BME280;41919;42.648;23.384;2022-07-23T05:34:26;94935.25;;;28.33;36.51
56052;BME280;41919;42.648;23.384;2022-07-23T05:36:51;94933.44;;;28.74;35.26
56052;BME280;41919;42.648;23.384;2022-07-23T05:39:17;94935.28;;;29.05;35.01
56052;BME280;41919;42.648;23.384;2022-07-23T05:41:42;94920.63;;;28.80;35.41
56052;BME280;41919;42.648;23.384;2022-07-23T05:44:08;94896.66;;;28.52;34.50
56052;BME280;41919;42.648;23.384;2022-07-23T05:46:33;94923.31;;;28.71;34.21
56052;BME280;41919;42.648;23.384;2022-07-23T05:48:59;94932.88;;;28.54;34.64
56052;BME280;41919;42.648;23.384;2022-07-23T05:51:25;94925.28;;;28.97;34.20
56052;BME280;41919;42.648;23.384;2022-07-23T05:53:51;94926.69;;;28.85;33.77
56052;BME280;41919;42.648;23.384;2022-07-23T05:56:19;94930.97;;;29.35;33.11
56052;BME280;41919;42.648;23.384;2022-07-23T05:58:44;94948.00;;;30.05;32.50
56052;BME280;41919;42.648;23.384;2022-07-23T06:01:10;94934.34;;;30.37;31.78
56052;BME280;41919;42.648;23.384;2022-07-23T06:03:37;94879.59;;;30.54;30.97
56052;BME280;41919;42.648;23.384;2022-07-23T06:06:03;94934.94;;;31.37;30.22
56052;BME280;41919;42.648;23.384;2022-07-23T06:08:28;94928.53;;;31.50;30.81
56052;BME280;41919;42.648;23.384;2022-07-23T06:10:54;94934.06;;;31.45;30.58
56052;BME280;41919;42.648;23.384;2022-07-23T06:13:20;94933.47;;;31.18;31.53
56052;BME280;41919;42.648;23.384;2022-07-23T06:15:46;94934.69;;;30.91;31.52
56052;BME280;41919;42.648;23.384;2022-07-23T06:18:11;94880.75;;;30.82;32.01
56052;BME280;41919;42.648;23.384;2022-07-23T06:20:37;94884.13;;;31.09;30.77
56052;BME280;41919;42.648;23.384;2022-07-23T06:23:03;94926.38;;;31.35;31.20
56052;BME280;41919;42.648;23.384;2022-07-23T06:25:28;94895.09;;;31.34;30.14
56052;BME280;41919;42.648;23.384;2022-07-23T06:27:53;94884.66;;;31.53;30.46
56052;BME280;41919;42.648;23.384;2022-07-23T06:30:19;94908.72;;;31.37;30.62
56052;BME280;41919;42.648;23.384;2022-07-23T06:32:46;94917.63;;;31.38;30.64
56052;BME280;41919;42.648;23.384;2022-07-23T06:35:11;94863.41;;;31.43;30.38
56052;BME280;41919;42.648;23.384;2022-07-23T06:37:36;94920.38;;;31.80;29.64
56052;BME280;41919;42.648;23.384;2022-07-23T06:40:03;94923.13;;;32.13;28.58
56052;BME280;41919;42.648;23.384;2022-07-23T06:42:28;94917.38;;;33.06;28.46
56052;BME280;41919;42.648;23.384;2022-07-23T06:44:54;94874.03;;;33.31;27.18
56052;BME280;41919;42.648;23.384;2022-07-23T06:47:19;94894.81;;;33.39;27.75
56052;BME280;41919;42.648;23.384;2022-07-23T06:49:44;94894.06;;;33.79;27.11
56052;BME280;41919;42.648;23.384;2022-07-23T06:52:10;94915.94;;;33.86;26.27
56052;BME280;41919;42.648;23.384;2022-07-23T06:54:35;94880.59;;;33.30;26.75
56052;BME280;41919;42.648;23.384;2022-07-23T06:57:01;94906.06;;;33.53;26.27
56052;BME280;41919;42.648;23.384;2022-07-23T06:59:26;94883.47;;;34.30;25.62
56052;BME280;41919;42.648;23.384;2022-07-23T07:01:52;94901.81;;;34.97;24.57
56052;BME280;41919;42.648;23.384;2022-07-23T07:04:17;94871.75;;;35.57;23.68
56052;BME280;41919;42.648;23.384;2022-07-23T07:06:43;94903.16;;;36.29;23.18
56052;BME280;41919;42.648;23.384;2022-07-23T07:09:08;94879.53;;;35.94;22.78
56052;BME280;41919;42.648;23.384;2022-07-23T07:11:33;94899.50;;;35.47;23.59
56052;BME280;41919;42.648;23.384;2022-07-23T07:13:59;94909.03;;;34.29;24.73
56052;BME280;41919;42.648;23.384;2022-07-23T07:16:24;94898.06;;;34.26;24.92
56052;BME280;41919;42.648;23.384;2022-07-23T07:18:50;94901.91;;;34.69;24.19
56052;BME280;41919;42.648;23.384;2022-07-23T07:21:15;94856.56;;;34.69;23.76
56052;BME280;41919;42.648;23.384;2022-07-23T07:23:41;94903.28;;;35.42;22.56
56052;BME280;41919;42.648;23.384;2022-07-23T07:26:06;94898.06;;;35.88;22.09
56052;BME280;41919;42.648;23.384;2022-07-23T07:28:32;94868.31;;;35.60;22.87
56052;BME280;41919;42.648;23.384;2022-07-23T07:30:57;94893.47;;;35.92;21.99
56052;BME280;41919;42.648;23.384;2022-07-23T07:33:23;94895.28;;;36.24;21.46
56052;BME280;41919;42.648;23.384;2022-07-23T07:35:48;94883.75;;;36.30;21.96
56052;BME280;41919;42.648;23.384;2022-07-23T07:38:14;94889.75;;;36.20;22.13
56052;BME280;41919;42.648;23.384;2022-07-23T07:40:39;94891.25;;;36.60;21.37
56052;BME280;41919;42.648;23.384;2022-07-23T07:43:05;94886.84;;;36.98;20.41
56052;BME280;41919;42.648;23.384;2022-07-23T07:45:31;94866.19;;;36.97;20.78
56052;BME280;41919;42.648;23.384;2022-07-23T07:47:57;94881.59;;;36.86;21.05
56052;BME280;41919;42.648;23.384;2022-07-23T07:50:23;94843.94;;;36.92;20.54
56052;BME280;41919;42.648;23.384;2022-07-23T07:52:48;94894.22;;;37.21;20.84
56052;BME280;41919;42.648;23.384;2022-07-23T07:55:14;94873.56;;;37.46;20.64
56052;BME280;41919;42.648;23.384;2022-07-23T07:57:40;94873.19;;;37.75;20.07
56052;BME280;41919;42.648;23.384;2022-07-23T08:00:07;94850.63;;;37.21;20.30
56052;BME280;41919;42.648;23.384;2022-07-23T08:02:47;94880.19;;;36.49;21.70
56052;BME280;41919;42.648;23.384;2022-07-23T08:05:13;94851.66;;;35.62;22.50
56052;BME280;41919;42.648;23.384;2022-07-23T08:07:39;94867.53;;;35.40;22.02
56052;BME280;41919;42.648;23.384;2022-07-23T08:10:09;94839.25;;;35.25;22.71
56052;BME280;41919;42.648;23.384;2022-07-23T08:12:54;94831.22;;;35.87;22.53
56052;BME280;41919;42.648;23.384;2022-07-23T08:15:22;94854.25;;;36.56;22.46
56052;BME280;41919;42.648;23.384;2022-07-23T08:17:48;94872.31;;;37.14;21.48
56052;BME280;41919;42.648;23.384;2022-07-23T08:20:16;94876.06;;;37.59;21.49
56052;BME280;41919;42.648;23.384;2022-07-23T08:22:49;94872.47;;;37.81;20.77
56052;BME280;41919;42.648;23.384;2022-07-23T08:25:16;94841.97;;;37.72;20.19
56052;BME280;41919;42.648;23.384;2022-07-23T08:27:44;94871.97;;;38.06;20.02
56052;BME280;41919;42.648;23.384;2022-07-23T08:30:10;94863.78;;;38.06;20.47
56052;BME280;41919;42.648;23.384;2022-07-23T08:33:02;94832.63;;;37.73;20.02
56052;BME280;41919;42.648;23.384;2022-07-23T08:35:35;94869.94;;;37.65;20.28
56052;BME280;41919;42.648;23.384;2022-07-23T08:38:04;94863.69;;;37.12;20.71
56052;BME280;41919;42.648;23.384;2022-07-23T08:40:31;94862.84;;;37.31;20.72
56052;BME280;41919;42.648;23.384;2022-07-23T08:42:58;94867.31;;;37.46;20.32
56052;BME280;41919;42.648;23.384;2022-07-23T08:45:25;94839.25;;;37.42;21.71
56052;BME280;41919;42.648;23.384;2022-07-23T08:47:56;94846.41;;;37.54;21.25
56052;BME280;41919;42.648;23.384;2022-07-23T08:50:23;94866.69;;;37.86;21.43
56052;BME280;41919;42.648;23.384;2022-07-23T08:52:50;94822.31;;;37.59;21.17
56052;BME280;41919;42.648;23.384;2022-07-23T08:55:20;94862.31;;;37.78;21.37
56052;BME280;41919;42.648;23.384;2022-07-23T08:57:51;94817.44;;;36.88;21.67
56052;BME280;41919;42.648;23.384;2022-07-23T09:00:18;94838.47;;;36.42;21.91
56052;BME280;41919;42.648;23.384;2022-07-23T09:02:45;94869.66;;;36.48;22.65
56052;BME280;41919;42.648;23.384;2022-07-23T09:05:11;94865.91;;;36.56;21.28
56052;BME280;41919;42.648;23.384;2022-07-23T09:07:38;94819.38;;;36.19;21.96
56052;BME280;41919;42.648;23.384;2022-07-23T09:10:23;94863.09;;;36.72;22.42
56052;BME280;41919;42.648;23.384;2022-07-23T09:12:48;94854.47;;;36.93;21.13
56052;BME280;41919;42.648;23.384;2022-07-23T09:15:14;94848.25;;;36.93;21.43
56052;BME280;41919;42.648;23.384;2022-07-23T09:17:41;94823.94;;;36.57;22.36
56052;BME280;41919;42.648;23.384;2022-07-23T09:22:34;94851.69;;;35.26;23.67
56052;BME280;41919;42.648;23.384;2022-07-23T09:25:06;94845.06;;;35.43;24.09
56052;BME280;41919;42.648;23.384;2022-07-23T09:27:59;94845.81;;;35.99;21.98
56052;BME280;41919;42.648;23.384;2022-07-23T09:30:31;94835.34;;;36.01;22.06
56052;BME280;41919;42.648;23.384;2022-07-23T09:33:12;94818.22;;;35.77;22.62
56052;BME280;41919;42.648;23.384;2022-07-23T09:35:48;94847.53;;;35.68;22.28
56052;BME280;41919;42.648;23.384;2022-07-23T09:38:14;94840.63;;;35.35;22.77
56052;BME280;41919;42.648;23.384;2022-07-23T09:40:40;94840.72;;;35.23;22.56
56052;BME280;41919;42.648;23.384;2022-07-23T09:43:06;94838.34;;;35.37;22.68
56052;BME280;41919;42.648;23.384;2022-07-23T09:45:31;94837.94;;;35.03;22.45
56052;BME280;41919;42.648;23.384;2022-07-23T09:48:17;94829.75;;;34.84;23.29
56052;BME280;41919;42.648;23.384;2022-07-23T09:50:43;94815.72;;;34.50;23.21
56052;BME280;41919;42.648;23.384;2022-07-23T09:53:23;94803.25;;;34.29;23.09
56052;BME280;41919;42.648;23.384;2022-07-23T09:55:49;94826.25;;;34.35;22.39
56052;BME280;41919;42.648;23.384;2022-07-23T09:58:17;94778.56;;;33.90;22.77
56052;BME280;41919;42.648;23.384;2022-07-23T10:00:43;94809.88;;;34.32;22.24
56052;BME280;41919;42.648;23.384;2022-07-23T10:03:11;94809.28;;;34.39;22.86
56052;BME280;41919;42.648;23.384;2022-07-23T10:05:38;94809.28;;;34.70;21.86
56052;BME280;41919;42.648;23.384;2022-07-23T10:08:07;94807.78;;;34.89;21.83
56052;BME280;41919;42.648;23.384;2022-07-23T10:10:35;94777.06;;;34.85;21.31
56052;BME280;41919;42.648;23.384;2022-07-23T10:13:01;94798.66;;;35.17;20.72
56052;BME280;41919;42.648;23.384;2022-07-23T10:15:43;94801.66;;;35.27;20.92
56052;BME280;41919;42.648;23.384;2022-07-23T10:18:10;94800.38;;;35.21;21.24
56052;BME280;41919;42.648;23.384;2022-07-23T10:20:37;94747.88;;;34.82;20.56
56052;BME280;41919;42.648;23.384;2022-07-23T10:28:46;94799.03;;;35.31;20.78
56052;BME280;41919;42.648;23.384;2022-07-23T10:34:15;94757.47;;;34.95;19.81
56052;BME280;41919;42.648;23.384;2022-07-23T10:37:05;94786.50;;;34.59;20.01
56052;BME280;41919;42.648;23.384;2022-07-23T10:39:33;94750.78;;;34.57;20.81
56052;BME280;41919;42.648;23.384;2022-07-23T10:42:17;94764.00;;;34.74;20.26
56052;BME280;41919;42.648;23.384;2022-07-23T10:44:48;94777.31;;;34.64;20.66
56052;BME280;41919;42.648;23.384;2022-07-23T10:47:30;94729.97;;;34.13;20.53
56052;BME280;41919;42.648;23.384;2022-07-23T10:50:26;94767.34;;;34.20;20.55
56052;BME280;41919;42.648;23.384;2022-07-23T10:58:01;94737.84;;;34.34;20.35
56052;BME280;41919;42.648;23.384;2022-07-23T11:00:29;94758.94;;;34.57;19.96
56052;BME280;41919;42.648;23.384;2022-07-23T11:02:57;94747.28;;;34.72;19.58
56052;BME280;41919;42.648;23.384;2022-07-23T11:05:26;94709.13;;;34.49;18.86
56052;BME280;41919;42.648;23.384;2022-07-23T11:31:54;94710.78;;;34.70;16.54
56052;BME280;41919;42.648;23.384;2022-07-23T11:37:00;94721.25;;;34.87;16.30
56052;BME280;41919;42.648;23.384;2022-07-23T11:39:28;94682.44;;;34.67;15.66
56052;BME280;41919;42.648;23.384;2022-07-23T11:41:55;94688.53;;;34.80;15.65
56052;BME280;41919;42.648;23.384;2022-07-23T11:44:28;94710.75;;;35.05;15.75
56052;BME280;41919;42.648;23.384;2022-07-23T11:46:58;94701.06;;;35.04;15.81
56052;BME280;41919;42.648;23.384;2022-07-23T11:49:25;94718.97;;;35.09;15.54
56052;BME280;41919;42.648;23.384;2022-07-23T11:52:07;94711.59;;;35.09;15.66
56052;BME280;41919;42.648;23.384;2022-07-23T11:54:35;94672.38;;;34.87;15.59
56052;BME280;41919;42.648;23.384;2022-07-23T11:57:02;94708.91;;;35.09;15.27
56052;BME280;41919;42.648;23.384;2022-07-23T11:59:31;94692.97;;;35.08;15.60
56052;BME280;41919;42.648;23.384;2022-07-23T12:02:02;94703.28;;;35.18;15.69
56052;BME280;41919;42.648;23.384;2022-07-23T12:04:41;94703.91;;;35.11;14.91
56052;BME280;41919;42.648;23.384;2022-07-23T12:07:43;94697.50;;;35.20;15.39
56052;BME280;41919;42.648;23.384;2022-07-23T12:15:03;94692.94;;;35.24;15.40
56052;BME280;41919;42.648;23.384;2022-07-23T12:17:32;94652.44;;;34.99;15.16
56052;BME280;41919;42.648;23.384;2022-07-23T12:19:58;94695.78;;;35.31;15.00
56052;BME280;41919;42.648;23.384;2022-07-23T12:22:26;94686.06;;;35.30;15.37
56052;BME280;41919;42.648;23.384;2022-07-23T12:27:21;94673.38;;;35.38;14.78
56052;BME280;41919;42.648;23.384;2022-07-23T12:29:47;94688.06;;;35.33;14.58
56052;BME280;41919;42.648;23.384;2022-07-23T12:32:27;94639.03;;;35.06;14.96
56052;BME280;41919;42.648;23.384;2022-07-23T12:35:07;94671.84;;;35.37;14.78
56052;BME280;41919;42.648;23.384;2022-07-23T12:37:36;94675.47;;;35.44;14.16
56052;BME280;41919;42.648;23.384;2022-07-23T12:40:28;94675.91;;;35.46;14.32
56052;BME280;41919;42.648;23.384;2022-07-23T12:42:58;94652.59;;;35.26;13.76
56052;BME280;41919;42.648;23.384;2022-07-23T12:45:25;94675.91;;;35.46;13.48
56052;BME280;41919;42.648;23.384;2022-07-23T12:50:44;94667.06;;;35.53;13.56
56052;BME280;41919;42.648;23.384;2022-07-23T12:53:19;94658.59;;;35.35;14.01
56052;BME280;41919;42.648;23.384;2022-07-23T12:55:46;94650.28;;;35.47;13.40
56052;BME280;41919;42.648;23.384;2022-07-23T12:58:18;94623.44;;;35.23;13.59
56052;BME280;41919;42.648;23.384;2022-07-23T13:03:22;94640.03;;;35.18;13.00
56052;BME280;41919;42.648;23.384;2022-07-23T13:05:47;94607.38;;;34.94;13.87
56052;BME280;41919;42.648;23.384;2022-07-23T13:08:13;94639.72;;;35.23;13.74
56052;BME280;41919;42.648;23.384;2022-07-23T13:10:38;94652.75;;;35.33;12.26
56052;BME280;41919;42.648;23.384;2022-07-23T13:13:10;94643.84;;;35.36;12.23
56052;BME280;41919;42.648;23.384;2022-07-23T13:15:36;94653.16;;;35.35;13.39
56052;BME280;41919;42.648;23.384;2022-07-23T13:18:01;94646.66;;;35.40;13.22
56052;BME280;41919;42.648;23.384;2022-07-23T13:20:26;94643.28;;;35.46;13.74
56052;BME280;41919;42.648;23.384;2022-07-23T13:22:52;94604.84;;;35.25;13.82
56052;BME280;41919;42.648;23.384;2022-07-23T13:25:20;94642.97;;;35.51;13.78
56052;BME280;41919;42.648;23.384;2022-07-23T13:27:46;94616.69;;;35.36;13.96
56052;BME280;41919;42.648;23.384;2022-07-23T13:30:11;94644.69;;;35.60;14.43
56052;BME280;41919;42.648;23.384;2022-07-23T13:32:37;94643.16;;;35.62;14.59
56052;BME280;41919;42.648;23.384;2022-07-23T13:35:03;94636.94;;;35.62;13.38
56052;BME280;41919;42.648;23.384;2022-07-23T13:37:28;94637.03;;;35.46;13.86
56052;BME280;41919;42.648;23.384;2022-07-23T13:39:54;94614.66;;;35.10;13.86
56052;BME280;41919;42.648;23.384;2022-07-23T13:42:20;94640.59;;;35.27;13.67
56052;BME280;41919;42.648;23.384;2022-07-23T13:44:45;94585.84;;;35.05;13.61
56052;BME280;41919;42.648;23.384;2022-07-23T13:47:11;94631.50;;;35.39;13.86